Wilson Lahn — 8PUO — position and weather

sailwx.info

Track history (hours):
 
Tides and Currents Weather Stations Pressure Air Temp Water Temp Dewpoint Dewpoint Depression Visibility Wind Speed Wind Dir Waves Ship Positions

Wilson Lahn

Last reported at 2014-Oct-22 22:31 UTC. Time now 2014-Oct-23 11:02 UTC.
Position N 66°17' E 012°14'.

Length 83 m; draft 4 m.

Type: Cargo ship. MMSI: 314259000.

Date/timePositionNaut miles runAvg speedWind from/ knotsBaromVisibWave heightAir tempDewpointWater temp
2014-Oct-22 22:31N 66°17' E 012°14'1010.3
2014-Oct-22 21:33N 66°14' E 012°38'1 0.0
2014-Oct-20 20:09N 66°13' E 012°40'2 3.6
2014-Oct-20 19:32N 66°15' E 012°37'6 5.7
2014-Oct-20 18:32N 66°16' E 012°23'  
2014-Oct-18 06:33N 59°22' W 003°39'8 7.8
2014-Oct-18 05:33N 59°18' W 003°52'7 7.3
2014-Oct-18 04:33N 59°12' W 004°02'7 7.0
2014-Oct-18 03:33N 59°07' W 004°12'7 7.1
2014-Oct-18 02:33N 59°02' W 004°21'7 7.0
2014-Oct-18 01:33N 58°57' W 004°31'7 6.8
2014-Oct-18 00:33N 58°52' W 004°40'8 7.6
2014-Oct-17 23:32N 58°47' W 004°50'28 8.3
2014-Oct-17 20:08N 58°24' W 005°23'10 9.1
2014-Oct-17 19:04N 58°16' W 005°33'8 9.5
2014-Oct-17 18:11N 58°09' W 005°42'6 9.8
2014-Oct-17 17:33N 58°04' W 005°48'138 8.5
2014-Oct-17 01:23N 55°51' W 006°50'8 9.5
2014-Oct-17 00:33N 55°45' W 006°41'10 9.8
2014-Oct-16 23:33N 55°37' W 006°30'1110.8
2014-Oct-16 22:33N 55°29' W 006°17'1111.1
2014-Oct-16 21:33N 55°23' W 006°01'1312.6
2014-Oct-16 20:33N 55°12' W 005°48'2210.9
2014-Oct-16 18:33N 54°51' W 005°36'10 9.8
2014-Oct-16 17:33N 54°42' W 005°42'9 9.1
2014-Oct-16 16:33N 54°37' W 005°55'3 0.4
2014-Oct-16 08:33N 54°39' W 005°51'9 8.9
2014-Oct-16 07:33N 54°45' W 005°39'9 8.7
2014-Oct-16 06:30N 54°54' W 005°39'21 8.9
2014-Oct-16 04:06N 55°12' W 005°57'5 9.0
2014-Oct-16 03:33N 55°16' W 006°02'8 8.5
2014-Oct-16 02:33N 55°22' W 006°13'9 8.7
2014-Oct-16 01:33N 55°29' W 006°23'9 8.7
2014-Oct-16 00:33N 55°36' W 006°32'9 9.2
2014-Oct-15 23:33N 55°43' W 006°42'9 9.2
2014-Oct-15 22:33N 55°50' W 006°52'8 7.8
2014-Oct-15 21:33N 55°57' W 007°00'131 8.2
2014-Oct-15 05:33N 58°04' W 006°06'10 9.7
2014-Oct-15 04:33N 58°12' W 005°53'10 9.7
2014-Oct-15 03:33N 58°19' W 005°41'58 9.7
2014-Oct-14 21:33N 59°01' W 004°24'10 9.7
2014-Oct-14 20:31N 59°08' W 004°10'286 9.9
2014-Oct-13 15:33N 58°53' E 005°03'1110.5
2014-Oct-13 14:33N 58°52' E 005°24'7 6.8
2014-Oct-13 13:33N 58°55' E 005°35'0 0.0
2014-Oct-13 12:31N 58°55' E 005°35'0 0.0
2014-Oct-13 11:31N 58°55' E 005°35'0 0.0
2014-Oct-13 10:31N 58°55' E 005°35'0 0.0
2014-Oct-13 09:31N 58°55' E 005°35'0 0.0
2014-Oct-13 08:31N 58°55' E 005°35'0 0.0
2014-Oct-13 07:31N 58°55' E 005°35'0 0.0
2014-Oct-13 06:31N 58°55' E 005°35'0 0.4
2014-Oct-13 05:33N 58°55' E 005°35'2 2.0
2014-Oct-13 04:31N 58°56' E 005°31'0 0.0
2014-Oct-13 03:31N 58°56' E 005°31'0 0.0
2014-Oct-13 02:31N 58°56' E 005°31'0 0.0
2014-Oct-13 01:31N 58°56' E 005°31'0 0.0
2014-Oct-13 00:31N 58°56' E 005°31'0 0.0
2014-Oct-12 23:31N 58°56' E 005°31'  
Track history (hours):
 
Tides and Currents Weather Stations Pressure Air Temp Water Temp Dewpoint Dewpoint Depression Visibility Wind Speed Wind Dir Waves Ship Positions

Wilson Lahn

Last reported at 2014-Oct-22 22:31 UTC. Time now 2014-Oct-23 11:02 UTC.
Position N 66°17' E 012°14'.

Length 83 m; draft 4 m.

Type: Cargo ship. MMSI: 314259000.

Date/timePositionNaut miles runAvg speedWind from/ knotsBaromVisibWave heightAir tempDewpointWater temp
2014-Oct-22 22:31N 66°17' E 012°14'1010.3
2014-Oct-22 21:33N 66°14' E 012°38'1 0.0
2014-Oct-20 20:09N 66°13' E 012°40'2 3.6
2014-Oct-20 19:32N 66°15' E 012°37'6 5.7
2014-Oct-20 18:32N 66°16' E 012°23'  
2014-Oct-18 06:33N 59°22' W 003°39'8 7.8
2014-Oct-18 05:33N 59°18' W 003°52'7 7.3
2014-Oct-18 04:33N 59°12' W 004°02'7 7.0
2014-Oct-18 03:33N 59°07' W 004°12'7 7.1
2014-Oct-18 02:33N 59°02' W 004°21'7 7.0
2014-Oct-18 01:33N 58°57' W 004°31'7 6.8
2014-Oct-18 00:33N 58°52' W 004°40'8 7.6
2014-Oct-17 23:32N 58°47' W 004°50'28 8.3
2014-Oct-17 20:08N 58°24' W 005°23'10 9.1
2014-Oct-17 19:04N 58°16' W 005°33'8 9.5
2014-Oct-17 18:11N 58°09' W 005°42'6 9.8
2014-Oct-17 17:33N 58°04' W 005°48'138 8.5
2014-Oct-17 01:23N 55°51' W 006°50'8 9.5
2014-Oct-17 00:33N 55°45' W 006°41'10 9.8
2014-Oct-16 23:33N 55°37' W 006°30'1110.8
2014-Oct-16 22:33N 55°29' W 006°17'1111.1
2014-Oct-16 21:33N 55°23' W 006°01'1312.6
2014-Oct-16 20:33N 55°12' W 005°48'2210.9
2014-Oct-16 18:33N 54°51' W 005°36'10 9.8
2014-Oct-16 17:33N 54°42' W 005°42'9 9.1
2014-Oct-16 16:33N 54°37' W 005°55'3 0.4
2014-Oct-16 08:33N 54°39' W 005°51'9 8.9
2014-Oct-16 07:33N 54°45' W 005°39'9 8.7
2014-Oct-16 06:30N 54°54' W 005°39'21 8.9
2014-Oct-16 04:06N 55°12' W 005°57'5 9.0
2014-Oct-16 03:33N 55°16' W 006°02'8 8.5
2014-Oct-16 02:33N 55°22' W 006°13'9 8.7
2014-Oct-16 01:33N 55°29' W 006°23'9 8.7
2014-Oct-16 00:33N 55°36' W 006°32'9 9.2
2014-Oct-15 23:33N 55°43' W 006°42'9 9.2
2014-Oct-15 22:33N 55°50' W 006°52'8 7.8
2014-Oct-15 21:33N 55°57' W 007°00'131 8.2
2014-Oct-15 05:33N 58°04' W 006°06'10 9.7
2014-Oct-15 04:33N 58°12' W 005°53'10 9.7
2014-Oct-15 03:33N 58°19' W 005°41'58 9.7
2014-Oct-14 21:33N 59°01' W 004°24'10 9.7
2014-Oct-14 20:31N 59°08' W 004°10'286 9.9
2014-Oct-13 15:33N 58°53' E 005°03'1110.5
2014-Oct-13 14:33N 58°52' E 005°24'7 6.8
2014-Oct-13 13:33N 58°55' E 005°35'0 0.0
2014-Oct-13 12:31N 58°55' E 005°35'0 0.0
2014-Oct-13 11:31N 58°55' E 005°35'0 0.0
2014-Oct-13 10:31N 58°55' E 005°35'0 0.0
2014-Oct-13 09:31N 58°55' E 005°35'0 0.0
2014-Oct-13 08:31N 58°55' E 005°35'0 0.0
2014-Oct-13 07:31N 58°55' E 005°35'0 0.0
2014-Oct-13 06:31N 58°55' E 005°35'0 0.4
2014-Oct-13 05:33N 58°55' E 005°35'2 2.0
2014-Oct-13 04:31N 58°56' E 005°31'0 0.0
2014-Oct-13 03:31N 58°56' E 005°31'0 0.0
2014-Oct-13 02:31N 58°56' E 005°31'0 0.0
2014-Oct-13 01:31N 58°56' E 005°31'0 0.0
2014-Oct-13 00:31N 58°56' E 005°31'0 0.0
2014-Oct-12 23:31N 58°56' E 005°31'  

Dump ship's entire track history